<?xml version="1.0" encoding="UTF-8" standalone="no" ?>
<gpx xmlns="http://www.topografix.com/GPX/1/1" xmlns:xsi="http://www.w3.org/2001/XMLSchema-instance" xsi:schemaLocation="http://www.topografix.com/GPX/1/1 http://www.topografix.com/GPX/1/1/gpx.xsd" version="1.1" creator="VisuGPX - https://www.visugpx.com">
  <metadata>
    <name>Marche ACC du 22/04/20158</name>
    <desc><![CDATA[Circuit au départ du Château de l'Hôpitau, Boulevard Becquerel, chemin du Gesvres, route de la Jonelière, Audencia, chemin de halage bords de l'Erdre,, la Desnerie, Allée des muriers, rue de Cotalard, chemin de la pièce, Erdre Active, rue du Tyrol, retour du Château de l'Hôpitau]]></desc>
  </metadata>
  <trk>
    <name><![CDATA[Randonnée du 22/04/2018 à 08:40]]></name>
    <trkseg>
      <trkpt lat="47.26991" lon="-1.55231">
        <ele>25</ele>
        <time>2018-04-22T08:40:35+02:00</time>
      </trkpt>
      <trkpt lat="47.26968" lon="-1.55226">
        <ele>24</ele>
        <time>2018-04-22T08:41:26+02:00</time>
      </trkpt>
      <trkpt lat="47.26946" lon="-1.55236">
        <ele>24</ele>
        <time>2018-04-22T08:41:42+02:00</time>
      </trkpt>
      <trkpt lat="47.26925" lon="-1.55247">
        <ele>25</ele>
        <time>2018-04-22T08:41:58+02:00</time>
      </trkpt>
      <trkpt lat="47.26903" lon="-1.55258">
        <ele>26</ele>
        <time>2018-04-22T08:42:16+02:00</time>
      </trkpt>
      <trkpt lat="47.26882" lon="-1.55268">
        <ele>26</ele>
        <time>2018-04-22T08:42:33+02:00</time>
      </trkpt>
      <trkpt lat="47.26859" lon="-1.55279">
        <ele>26</ele>
        <time>2018-04-22T08:42:50+02:00</time>
      </trkpt>
      <trkpt lat="47.26836" lon="-1.55288">
        <ele>26</ele>
        <time>2018-04-22T08:43:05+02:00</time>
      </trkpt>
      <trkpt lat="47.26813" lon="-1.55293">
        <ele>25</ele>
        <time>2018-04-22T08:43:21+02:00</time>
      </trkpt>
      <trkpt lat="47.26795" lon="-1.55316">
        <ele>25</ele>
        <time>2018-04-22T08:43:37+02:00</time>
      </trkpt>
      <trkpt lat="47.26778" lon="-1.55339">
        <ele>25</ele>
        <time>2018-04-22T08:43:55+02:00</time>
      </trkpt>
      <trkpt lat="47.26758" lon="-1.55323">
        <ele>25</ele>
        <time>2018-04-22T08:44:12+02:00</time>
      </trkpt>
      <trkpt lat="47.26736" lon="-1.55315">
        <ele>25</ele>
        <time>2018-04-22T08:44:28+02:00</time>
      </trkpt>
      <trkpt lat="47.26713" lon="-1.55309">
        <ele>26</ele>
        <time>2018-04-22T08:44:44+02:00</time>
      </trkpt>
      <trkpt lat="47.26691" lon="-1.55303">
        <ele>26</ele>
        <time>2018-04-22T08:45:01+02:00</time>
      </trkpt>
      <trkpt lat="47.26671" lon="-1.55287">
        <ele>28</ele>
        <time>2018-04-22T08:45:18+02:00</time>
      </trkpt>
      <trkpt lat="47.2665" lon="-1.55271">
        <ele>29</ele>
        <time>2018-04-22T08:45:35+02:00</time>
      </trkpt>
      <trkpt lat="47.26627" lon="-1.55258">
        <ele>24</ele>
        <time>2018-04-22T08:45:51+02:00</time>
      </trkpt>
      <trkpt lat="47.26606" lon="-1.55246">
        <ele>25</ele>
        <time>2018-04-22T08:46:07+02:00</time>
      </trkpt>
      <trkpt lat="47.26583" lon="-1.55235">
        <ele>26</ele>
        <time>2018-04-22T08:46:25+02:00</time>
      </trkpt>
      <trkpt lat="47.26564" lon="-1.55258">
        <ele>26</ele>
        <time>2018-04-22T08:46:44+02:00</time>
      </trkpt>
      <trkpt lat="47.2655" lon="-1.55285">
        <ele>24</ele>
        <time>2018-04-22T08:47:00+02:00</time>
      </trkpt>
      <trkpt lat="47.26538" lon="-1.55315">
        <ele>20</ele>
        <time>2018-04-22T08:47:18+02:00</time>
      </trkpt>
      <trkpt lat="47.26514" lon="-1.55315">
        <ele>25</ele>
        <time>2018-04-22T08:47:38+02:00</time>
      </trkpt>
      <trkpt lat="47.26493" lon="-1.55305">
        <ele>24</ele>
        <time>2018-04-22T08:47:53+02:00</time>
      </trkpt>
      <trkpt lat="47.26469" lon="-1.55305">
        <ele>19</ele>
        <time>2018-04-22T08:48:06+02:00</time>
      </trkpt>
      <trkpt lat="47.26447" lon="-1.55298">
        <ele>14</ele>
        <time>2018-04-22T08:48:21+02:00</time>
      </trkpt>
      <trkpt lat="47.26428" lon="-1.55277">
        <ele>9</ele>
        <time>2018-04-22T08:48:38+02:00</time>
      </trkpt>
      <trkpt lat="47.26415" lon="-1.5525">
        <ele>39</ele>
        <time>2018-04-22T08:48:58+02:00</time>
      </trkpt>
      <trkpt lat="47.26397" lon="-1.5523">
        <ele>42</ele>
        <time>2018-04-22T08:49:15+02:00</time>
      </trkpt>
      <trkpt lat="47.26375" lon="-1.55223">
        <ele>40</ele>
        <time>2018-04-22T08:49:30+02:00</time>
      </trkpt>
      <trkpt lat="47.26352" lon="-1.55212">
        <ele>35</ele>
        <time>2018-04-22T08:49:47+02:00</time>
      </trkpt>
      <trkpt lat="47.26331" lon="-1.55225">
        <ele>34</ele>
        <time>2018-04-22T08:50:03+02:00</time>
      </trkpt>
      <trkpt lat="47.26309" lon="-1.55234">
        <ele>26</ele>
        <time>2018-04-22T08:50:17+02:00</time>
      </trkpt>
      <trkpt lat="47.26288" lon="-1.55249">
        <ele>22</ele>
        <time>2018-04-22T08:50:33+02:00</time>
      </trkpt>
      <trkpt lat="47.2627" lon="-1.5527">
        <ele>15</ele>
        <time>2018-04-22T08:50:47+02:00</time>
      </trkpt>
      <trkpt lat="47.26252" lon="-1.55292">
        <ele>13</ele>
        <time>2018-04-22T08:51:03+02:00</time>
      </trkpt>
      <trkpt lat="47.26235" lon="-1.55315">
        <ele>14</ele>
        <time>2018-04-22T08:51:17+02:00</time>
      </trkpt>
      <trkpt lat="47.26218" lon="-1.55339">
        <ele>10</ele>
        <time>2018-04-22T08:51:32+02:00</time>
      </trkpt>
      <trkpt lat="47.26196" lon="-1.55348">
        <ele>9</ele>
        <time>2018-04-22T08:51:49+02:00</time>
      </trkpt>
      <trkpt lat="47.26174" lon="-1.55343">
        <ele>1</ele>
        <time>2018-04-22T08:52:04+02:00</time>
      </trkpt>
      <trkpt lat="47.26151" lon="-1.55333">
        <ele>10</ele>
        <time>2018-04-22T08:52:21+02:00</time>
      </trkpt>
      <trkpt lat="47.26128" lon="-1.55325">
        <ele>10</ele>
        <time>2018-04-22T08:52:36+02:00</time>
      </trkpt>
      <trkpt lat="47.26108" lon="-1.55312">
        <ele>7</ele>
        <time>2018-04-22T08:52:50+02:00</time>
      </trkpt>
      <trkpt lat="47.26089" lon="-1.55332">
        <ele>6</ele>
        <time>2018-04-22T08:53:09+02:00</time>
      </trkpt>
      <trkpt lat="47.26078" lon="-1.55361">
        <ele>9</ele>
        <time>2018-04-22T08:53:25+02:00</time>
      </trkpt>
      <trkpt lat="47.26066" lon="-1.55389">
        <ele>8</ele>
        <time>2018-04-22T08:53:40+02:00</time>
      </trkpt>
      <trkpt lat="47.26053" lon="-1.55419">
        <ele>7</ele>
        <time>2018-04-22T08:53:56+02:00</time>
      </trkpt>
      <trkpt lat="47.26045" lon="-1.55451">
        <ele>3</ele>
        <time>2018-04-22T08:54:11+02:00</time>
      </trkpt>
      <trkpt lat="47.26034" lon="-1.55481">
        <ele>1</ele>
        <time>2018-04-22T08:54:29+02:00</time>
      </trkpt>
      <trkpt lat="47.26024" lon="-1.55511">
        <ele>-3</ele>
        <time>2018-04-22T08:54:44+02:00</time>
      </trkpt>
      <trkpt lat="47.26015" lon="-1.55542">
        <ele>-4</ele>
        <time>2018-04-22T08:55:01+02:00</time>
      </trkpt>
      <trkpt lat="47.26004" lon="-1.55574">
        <ele>-4</ele>
        <time>2018-04-22T08:55:18+02:00</time>
      </trkpt>
      <trkpt lat="47.25997" lon="-1.55605">
        <ele>2</ele>
        <time>2018-04-22T08:55:36+02:00</time>
      </trkpt>
      <trkpt lat="47.25977" lon="-1.55621">
        <ele>13</ele>
        <time>2018-04-22T08:55:55+02:00</time>
      </trkpt>
      <trkpt lat="47.25957" lon="-1.55641">
        <ele>9</ele>
        <time>2018-04-22T08:56:18+02:00</time>
      </trkpt>
      <trkpt lat="47.25944" lon="-1.5567">
        <ele>7</ele>
        <time>2018-04-22T08:56:31+02:00</time>
      </trkpt>
      <trkpt lat="47.25936" lon="-1.55703">
        <ele>7</ele>
        <time>2018-04-22T08:56:52+02:00</time>
      </trkpt>
      <trkpt lat="47.25913" lon="-1.5571">
        <ele>1</ele>
        <time>2018-04-22T08:57:19+02:00</time>
      </trkpt>
      <trkpt lat="47.25891" lon="-1.55718">
        <ele>-2</ele>
        <time>2018-04-22T08:57:30+02:00</time>
      </trkpt>
      <trkpt lat="47.25868" lon="-1.55712">
        <ele>1</ele>
        <time>2018-04-22T08:57:47+02:00</time>
      </trkpt>
      <trkpt lat="47.25847" lon="-1.557">
        <ele>5</ele>
        <time>2018-04-22T08:58:04+02:00</time>
      </trkpt>
      <trkpt lat="47.25824" lon="-1.557">
        <ele>9</ele>
        <time>2018-04-22T08:58:22+02:00</time>
      </trkpt>
      <trkpt lat="47.25802" lon="-1.55694">
        <ele>6</ele>
        <time>2018-04-22T08:58:40+02:00</time>
      </trkpt>
      <trkpt lat="47.2578" lon="-1.55679">
        <ele>6</ele>
        <time>2018-04-22T08:58:57+02:00</time>
      </trkpt>
      <trkpt lat="47.25766" lon="-1.55653">
        <ele>13.4</ele>
        <time>2018-04-22T08:59:14+02:00</time>
      </trkpt>
      <trkpt lat="47.25759" lon="-1.5562">
        <ele>-5</ele>
        <time>2018-04-22T08:59:29+02:00</time>
      </trkpt>
      <trkpt lat="47.25757" lon="-1.55587">
        <ele>-10</ele>
        <time>2018-04-22T08:59:46+02:00</time>
      </trkpt>
      <trkpt lat="47.25751" lon="-1.55553">
        <ele>-9</ele>
        <time>2018-04-22T09:00:03+02:00</time>
      </trkpt>
      <trkpt lat="47.25739" lon="-1.55523">
        <ele>-12</ele>
        <time>2018-04-22T09:00:19+02:00</time>
      </trkpt>
      <trkpt lat="47.25723" lon="-1.55497">
        <ele>-13</ele>
        <time>2018-04-22T09:00:36+02:00</time>
      </trkpt>
      <trkpt lat="47.25711" lon="-1.55469">
        <ele>-11</ele>
        <time>2018-04-22T09:00:51+02:00</time>
      </trkpt>
      <trkpt lat="47.25698" lon="-1.5544">
        <ele>-6</ele>
        <time>2018-04-22T09:01:05+02:00</time>
      </trkpt>
      <trkpt lat="47.25687" lon="-1.5541">
        <ele>-9</ele>
        <time>2018-04-22T09:01:19+02:00</time>
      </trkpt>
      <trkpt lat="47.25671" lon="-1.55384">
        <ele>-16</ele>
        <time>2018-04-22T09:01:36+02:00</time>
      </trkpt>
      <trkpt lat="47.25654" lon="-1.5536">
        <ele>-9</ele>
        <time>2018-04-22T09:01:54+02:00</time>
      </trkpt>
      <trkpt lat="47.25642" lon="-1.55331">
        <ele>-1</ele>
        <time>2018-04-22T09:02:11+02:00</time>
      </trkpt>
      <trkpt lat="47.25628" lon="-1.55305">
        <ele>1</ele>
        <time>2018-04-22T09:02:26+02:00</time>
      </trkpt>
      <trkpt lat="47.25616" lon="-1.55275">
        <ele>-8</ele>
        <time>2018-04-22T09:02:42+02:00</time>
      </trkpt>
      <trkpt lat="47.25603" lon="-1.55247">
        <ele>-8</ele>
        <time>2018-04-22T09:02:58+02:00</time>
      </trkpt>
      <trkpt lat="47.25587" lon="-1.55224">
        <ele>-6</ele>
        <time>2018-04-22T09:03:14+02:00</time>
      </trkpt>
      <trkpt lat="47.25571" lon="-1.55201">
        <ele>-12</ele>
        <time>2018-04-22T09:03:29+02:00</time>
      </trkpt>
      <trkpt lat="47.25554" lon="-1.55178">
        <ele>-15</ele>
        <time>2018-04-22T09:03:47+02:00</time>
      </trkpt>
      <trkpt lat="47.25539" lon="-1.55152">
        <ele>-7</ele>
        <time>2018-04-22T09:04:04+02:00</time>
      </trkpt>
      <trkpt lat="47.25526" lon="-1.55124">
        <ele>-7</ele>
        <time>2018-04-22T09:04:18+02:00</time>
      </trkpt>
      <trkpt lat="47.25518" lon="-1.5509">
        <ele>-6</ele>
        <time>2018-04-22T09:04:34+02:00</time>
      </trkpt>
      <trkpt lat="47.2551" lon="-1.5506">
        <ele>-9</ele>
        <time>2018-04-22T09:04:48+02:00</time>
      </trkpt>
      <trkpt lat="47.25497" lon="-1.5503">
        <ele>-16</ele>
        <time>2018-04-22T09:05:04+02:00</time>
      </trkpt>
      <trkpt lat="47.25491" lon="-1.54998">
        <ele>-19</ele>
        <time>2018-04-22T09:05:19+02:00</time>
      </trkpt>
      <trkpt lat="47.25487" lon="-1.54965">
        <ele>-14</ele>
        <time>2018-04-22T09:05:34+02:00</time>
      </trkpt>
      <trkpt lat="47.25484" lon="-1.54932">
        <ele>-13</ele>
        <time>2018-04-22T09:05:48+02:00</time>
      </trkpt>
      <trkpt lat="47.2549" lon="-1.549">
        <ele>-9</ele>
        <time>2018-04-22T09:06:04+02:00</time>
      </trkpt>
      <trkpt lat="47.25491" lon="-1.54865">
        <ele>-7</ele>
        <time>2018-04-22T09:06:19+02:00</time>
      </trkpt>
      <trkpt lat="47.25489" lon="-1.54831">
        <ele>-19</ele>
        <time>2018-04-22T09:06:32+02:00</time>
      </trkpt>
      <trkpt lat="47.25489" lon="-1.54798">
        <ele>-21</ele>
        <time>2018-04-22T09:06:47+02:00</time>
      </trkpt>
      <trkpt lat="47.25491" lon="-1.54764">
        <ele>-17</ele>
        <time>2018-04-22T09:07:04+02:00</time>
      </trkpt>
      <trkpt lat="47.25474" lon="-1.54741">
        <ele>-12</ele>
        <time>2018-04-22T09:07:21+02:00</time>
      </trkpt>
      <trkpt lat="47.25472" lon="-1.54708">
        <ele>-8</ele>
        <time>2018-04-22T09:07:39+02:00</time>
      </trkpt>
      <trkpt lat="47.25464" lon="-1.54676">
        <ele>-7</ele>
        <time>2018-04-22T09:07:55+02:00</time>
      </trkpt>
      <trkpt lat="47.25441" lon="-1.5467">
        <ele>-7</ele>
        <time>2018-04-22T09:08:14+02:00</time>
      </trkpt>
      <trkpt lat="47.25419" lon="-1.54677">
        <ele>-7</ele>
        <time>2018-04-22T09:08:32+02:00</time>
      </trkpt>
      <trkpt lat="47.254" lon="-1.54696">
        <ele>1</ele>
        <time>2018-04-22T09:08:47+02:00</time>
      </trkpt>
      <trkpt lat="47.2538" lon="-1.54713">
        <ele>5</ele>
        <time>2018-04-22T09:09:05+02:00</time>
      </trkpt>
      <trkpt lat="47.25361" lon="-1.54733">
        <ele>3</ele>
        <time>2018-04-22T09:09:19+02:00</time>
      </trkpt>
      <trkpt lat="47.25347" lon="-1.54759">
        <ele>3</ele>
        <time>2018-04-22T09:09:33+02:00</time>
      </trkpt>
      <trkpt lat="47.25333" lon="-1.54787">
        <ele>3</ele>
        <time>2018-04-22T09:09:47+02:00</time>
      </trkpt>
      <trkpt lat="47.2531" lon="-1.5478">
        <ele>7</ele>
        <time>2018-04-22T09:10:11+02:00</time>
      </trkpt>
      <trkpt lat="47.2529" lon="-1.54764">
        <ele>12</ele>
        <time>2018-04-22T09:10:28+02:00</time>
      </trkpt>
      <trkpt lat="47.25273" lon="-1.54742">
        <ele>7</ele>
        <time>2018-04-22T09:10:43+02:00</time>
      </trkpt>
      <trkpt lat="47.25262" lon="-1.54773">
        <ele>12</ele>
        <time>2018-04-22T09:11:20+02:00</time>
      </trkpt>
      <trkpt lat="47.25263" lon="-1.54806">
        <ele>8</ele>
        <time>2018-04-22T09:11:34+02:00</time>
      </trkpt>
      <trkpt lat="47.25257" lon="-1.54839">
        <ele>5</ele>
        <time>2018-04-22T09:11:51+02:00</time>
      </trkpt>
      <trkpt lat="47.25249" lon="-1.54871">
        <ele>9</ele>
        <time>2018-04-22T09:12:09+02:00</time>
      </trkpt>
      <trkpt lat="47.25237" lon="-1.549">
        <ele>5</ele>
        <time>2018-04-22T09:12:26+02:00</time>
      </trkpt>
      <trkpt lat="47.25214" lon="-1.54903">
        <ele>5</ele>
        <time>2018-04-22T09:12:46+02:00</time>
      </trkpt>
      <trkpt lat="47.25193" lon="-1.54917">
        <ele>8</ele>
        <time>2018-04-22T09:13:02+02:00</time>
      </trkpt>
      <trkpt lat="47.25175" lon="-1.54938">
        <ele>21</ele>
        <time>2018-04-22T09:13:19+02:00</time>
      </trkpt>
      <trkpt lat="47.25155" lon="-1.54953">
        <ele>26</ele>
        <time>2018-04-22T09:13:34+02:00</time>
      </trkpt>
      <trkpt lat="47.25132" lon="-1.54965">
        <ele>26</ele>
        <time>2018-04-22T09:13:51+02:00</time>
      </trkpt>
      <trkpt lat="47.25111" lon="-1.54978">
        <ele>27</ele>
        <time>2018-04-22T09:14:08+02:00</time>
      </trkpt>
      <trkpt lat="47.2509" lon="-1.54993">
        <ele>31</ele>
        <time>2018-04-22T09:14:25+02:00</time>
      </trkpt>
      <trkpt lat="47.25068" lon="-1.54997">
        <ele>27</ele>
        <time>2018-04-22T09:14:41+02:00</time>
      </trkpt>
      <trkpt lat="47.25045" lon="-1.55006">
        <ele>22</ele>
        <time>2018-04-22T09:14:58+02:00</time>
      </trkpt>
      <trkpt lat="47.25022" lon="-1.55007">
        <ele>14</ele>
        <time>2018-04-22T09:15:14+02:00</time>
      </trkpt>
      <trkpt lat="47.25001" lon="-1.55021">
        <ele>19</ele>
        <time>2018-04-22T09:15:28+02:00</time>
      </trkpt>
      <trkpt lat="47.2498" lon="-1.55037">
        <ele>26</ele>
        <time>2018-04-22T09:15:45+02:00</time>
      </trkpt>
      <trkpt lat="47.24959" lon="-1.55054">
        <ele>26</ele>
        <time>2018-04-22T09:16:00+02:00</time>
      </trkpt>
      <trkpt lat="47.24938" lon="-1.55067">
        <ele>24</ele>
        <time>2018-04-22T09:16:17+02:00</time>
      </trkpt>
      <trkpt lat="47.24917" lon="-1.5508">
        <ele>25</ele>
        <time>2018-04-22T09:16:34+02:00</time>
      </trkpt>
      <trkpt lat="47.24896" lon="-1.55096">
        <ele>27</ele>
        <time>2018-04-22T09:16:51+02:00</time>
      </trkpt>
      <trkpt lat="47.24875" lon="-1.55109">
        <ele>21</ele>
        <time>2018-04-22T09:17:08+02:00</time>
      </trkpt>
      <trkpt lat="47.24855" lon="-1.55126">
        <ele>18</ele>
        <time>2018-04-22T09:17:26+02:00</time>
      </trkpt>
      <trkpt lat="47.24834" lon="-1.55137">
        <ele>17</ele>
        <time>2018-04-22T09:17:40+02:00</time>
      </trkpt>
      <trkpt lat="47.24812" lon="-1.55127">
        <ele>13</ele>
        <time>2018-04-22T09:18:02+02:00</time>
      </trkpt>
      <trkpt lat="47.24804" lon="-1.55096">
        <ele>12</ele>
        <time>2018-04-22T09:18:18+02:00</time>
      </trkpt>
      <trkpt lat="47.24796" lon="-1.55064">
        <ele>16</ele>
        <time>2018-04-22T09:18:34+02:00</time>
      </trkpt>
      <trkpt lat="47.24785" lon="-1.55035">
        <ele>23</ele>
        <time>2018-04-22T09:18:52+02:00</time>
      </trkpt>
      <trkpt lat="47.2477" lon="-1.55009">
        <ele>30</ele>
        <time>2018-04-22T09:19:14+02:00</time>
      </trkpt>
      <trkpt lat="47.24754" lon="-1.54984">
        <ele>27</ele>
        <time>2018-04-22T09:19:32+02:00</time>
      </trkpt>
      <trkpt lat="47.24736" lon="-1.5496">
        <ele>24</ele>
        <time>2018-04-22T09:19:50+02:00</time>
      </trkpt>
      <trkpt lat="47.2472" lon="-1.54934">
        <ele>29</ele>
        <time>2018-04-22T09:20:03+02:00</time>
      </trkpt>
      <trkpt lat="47.24708" lon="-1.54906">
        <ele>31</ele>
        <time>2018-04-22T09:20:18+02:00</time>
      </trkpt>
      <trkpt lat="47.24695" lon="-1.54879">
        <ele>24</ele>
        <time>2018-04-22T09:20:34+02:00</time>
      </trkpt>
      <trkpt lat="47.24679" lon="-1.54853">
        <ele>17</ele>
        <time>2018-04-22T09:20:49+02:00</time>
      </trkpt>
      <trkpt lat="47.2466" lon="-1.54833">
        <ele>13</ele>
        <time>2018-04-22T09:21:05+02:00</time>
      </trkpt>
      <trkpt lat="47.2464" lon="-1.54818">
        <ele>14</ele>
        <time>2018-04-22T09:21:19+02:00</time>
      </trkpt>
      <trkpt lat="47.24626" lon="-1.54789">
        <ele>17</ele>
        <time>2018-04-22T09:21:35+02:00</time>
      </trkpt>
      <trkpt lat="47.2461" lon="-1.54764">
        <ele>16</ele>
        <time>2018-04-22T09:21:50+02:00</time>
      </trkpt>
      <trkpt lat="47.24592" lon="-1.54742">
        <ele>21</ele>
        <time>2018-04-22T09:22:08+02:00</time>
      </trkpt>
      <trkpt lat="47.24577" lon="-1.54717">
        <ele>13</ele>
        <time>2018-04-22T09:22:23+02:00</time>
      </trkpt>
      <trkpt lat="47.24562" lon="-1.54692">
        <ele>11</ele>
        <time>2018-04-22T09:22:38+02:00</time>
      </trkpt>
      <trkpt lat="47.24548" lon="-1.54664">
        <ele>9</ele>
        <time>2018-04-22T09:22:55+02:00</time>
      </trkpt>
      <trkpt lat="47.24533" lon="-1.54638">
        <ele>8</ele>
        <time>2018-04-22T09:23:12+02:00</time>
      </trkpt>
      <trkpt lat="47.24552" lon="-1.54619">
        <ele>10</ele>
        <time>2018-04-22T09:23:33+02:00</time>
      </trkpt>
      <trkpt lat="47.24573" lon="-1.54607">
        <ele>14</ele>
        <time>2018-04-22T09:23:49+02:00</time>
      </trkpt>
      <trkpt lat="47.24597" lon="-1.54602">
        <ele>3</ele>
        <time>2018-04-22T09:24:11+02:00</time>
      </trkpt>
      <trkpt lat="47.24621" lon="-1.546">
        <ele>7</ele>
        <time>2018-04-22T09:24:24+02:00</time>
      </trkpt>
      <trkpt lat="47.24641" lon="-1.54583">
        <ele>12</ele>
        <time>2018-04-22T09:24:41+02:00</time>
      </trkpt>
      <trkpt lat="47.24662" lon="-1.54571">
        <ele>7</ele>
        <time>2018-04-22T09:24:57+02:00</time>
      </trkpt>
      <trkpt lat="47.24685" lon="-1.54561">
        <ele>-2</ele>
        <time>2018-04-22T09:25:13+02:00</time>
      </trkpt>
      <trkpt lat="47.24708" lon="-1.54551">
        <ele>5.7</ele>
        <time>2018-04-22T09:25:33+02:00</time>
      </trkpt>
      <trkpt lat="47.24731" lon="-1.54542">
        <ele>9</ele>
        <time>2018-04-22T09:25:52+02:00</time>
      </trkpt>
      <trkpt lat="47.2475" lon="-1.54524">
        <ele>11</ele>
        <time>2018-04-22T09:26:07+02:00</time>
      </trkpt>
      <trkpt lat="47.24765" lon="-1.54498">
        <ele>7</ele>
        <time>2018-04-22T09:26:25+02:00</time>
      </trkpt>
      <trkpt lat="47.24784" lon="-1.54474">
        <ele>15</ele>
        <time>2018-04-22T09:26:45+02:00</time>
      </trkpt>
      <trkpt lat="47.24803" lon="-1.54456">
        <ele>-8</ele>
        <time>2018-04-22T09:27:05+02:00</time>
      </trkpt>
      <trkpt lat="47.24822" lon="-1.54438">
        <ele>-5</ele>
        <time>2018-04-22T09:27:16+02:00</time>
      </trkpt>
      <trkpt lat="47.24841" lon="-1.54417">
        <ele>-8</ele>
        <time>2018-04-22T09:27:32+02:00</time>
      </trkpt>
      <trkpt lat="47.2486" lon="-1.54396">
        <ele>8</ele>
        <time>2018-04-22T09:27:46+02:00</time>
      </trkpt>
      <trkpt lat="47.24875" lon="-1.54371">
        <ele>12</ele>
        <time>2018-04-22T09:28:02+02:00</time>
      </trkpt>
      <trkpt lat="47.24895" lon="-1.54353">
        <ele>11</ele>
        <time>2018-04-22T09:28:17+02:00</time>
      </trkpt>
      <trkpt lat="47.24912" lon="-1.54332">
        <ele>13</ele>
        <time>2018-04-22T09:28:32+02:00</time>
      </trkpt>
      <trkpt lat="47.24931" lon="-1.54309">
        <ele>15</ele>
        <time>2018-04-22T09:28:48+02:00</time>
      </trkpt>
      <trkpt lat="47.2495" lon="-1.54291">
        <ele>2</ele>
        <time>2018-04-22T09:29:03+02:00</time>
      </trkpt>
      <trkpt lat="47.24968" lon="-1.54268">
        <ele>3</ele>
        <time>2018-04-22T09:29:20+02:00</time>
      </trkpt>
      <trkpt lat="47.24988" lon="-1.54249">
        <ele>4</ele>
        <time>2018-04-22T09:29:34+02:00</time>
      </trkpt>
      <trkpt lat="47.25002" lon="-1.54222">
        <ele>4</ele>
        <time>2018-04-22T09:29:49+02:00</time>
      </trkpt>
      <trkpt lat="47.25021" lon="-1.54203">
        <ele>2</ele>
        <time>2018-04-22T09:30:04+02:00</time>
      </trkpt>
      <trkpt lat="47.25036" lon="-1.54177">
        <ele>-2</ele>
        <time>2018-04-22T09:30:20+02:00</time>
      </trkpt>
      <trkpt lat="47.25055" lon="-1.54156">
        <ele>-4</ele>
        <time>2018-04-22T09:30:37+02:00</time>
      </trkpt>
      <trkpt lat="47.25072" lon="-1.54135">
        <ele>-8</ele>
        <time>2018-04-22T09:30:53+02:00</time>
      </trkpt>
      <trkpt lat="47.25095" lon="-1.54123">
        <ele>-3</ele>
        <time>2018-04-22T09:31:08+02:00</time>
      </trkpt>
      <trkpt lat="47.25116" lon="-1.54112">
        <ele>-2</ele>
        <time>2018-04-22T09:31:23+02:00</time>
      </trkpt>
      <trkpt lat="47.25133" lon="-1.54089">
        <ele>-5</ele>
        <time>2018-04-22T09:31:38+02:00</time>
      </trkpt>
      <trkpt lat="47.25152" lon="-1.54071">
        <ele>-9</ele>
        <time>2018-04-22T09:31:56+02:00</time>
      </trkpt>
      <trkpt lat="47.25175" lon="-1.54067">
        <ele>-10</ele>
        <time>2018-04-22T09:32:15+02:00</time>
      </trkpt>
      <trkpt lat="47.25198" lon="-1.5406">
        <ele>-8</ele>
        <time>2018-04-22T09:32:31+02:00</time>
      </trkpt>
      <trkpt lat="47.2522" lon="-1.54054">
        <ele>-11</ele>
        <time>2018-04-22T09:32:50+02:00</time>
      </trkpt>
      <trkpt lat="47.25243" lon="-1.54049">
        <ele>-8</ele>
        <time>2018-04-22T09:33:06+02:00</time>
      </trkpt>
      <trkpt lat="47.25266" lon="-1.54043">
        <ele>-14</ele>
        <time>2018-04-22T09:33:26+02:00</time>
      </trkpt>
      <trkpt lat="47.25288" lon="-1.54035">
        <ele>-10</ele>
        <time>2018-04-22T09:33:40+02:00</time>
      </trkpt>
      <trkpt lat="47.25311" lon="-1.54038">
        <ele>-14</ele>
        <time>2018-04-22T09:34:02+02:00</time>
      </trkpt>
      <trkpt lat="47.25333" lon="-1.54031">
        <ele>-18</ele>
        <time>2018-04-22T09:34:23+02:00</time>
      </trkpt>
      <trkpt lat="47.25356" lon="-1.54026">
        <ele>-16</ele>
        <time>2018-04-22T09:34:39+02:00</time>
      </trkpt>
      <trkpt lat="47.25378" lon="-1.54018">
        <ele>-12</ele>
        <time>2018-04-22T09:34:57+02:00</time>
      </trkpt>
      <trkpt lat="47.25401" lon="-1.54012">
        <ele>-17</ele>
        <time>2018-04-22T09:35:16+02:00</time>
      </trkpt>
      <trkpt lat="47.25426" lon="-1.54007">
        <ele>-13</ele>
        <time>2018-04-22T09:35:28+02:00</time>
      </trkpt>
      <trkpt lat="47.25448" lon="-1.54001">
        <ele>-7</ele>
        <time>2018-04-22T09:35:41+02:00</time>
      </trkpt>
      <trkpt lat="47.25471" lon="-1.54009">
        <ele>-12</ele>
        <time>2018-04-22T09:35:59+02:00</time>
      </trkpt>
      <trkpt lat="47.25494" lon="-1.5401">
        <ele>-6</ele>
        <time>2018-04-22T09:36:13+02:00</time>
      </trkpt>
      <trkpt lat="47.25513" lon="-1.53992">
        <ele>-1</ele>
        <time>2018-04-22T09:36:31+02:00</time>
      </trkpt>
      <trkpt lat="47.25535" lon="-1.53983">
        <ele>-7</ele>
        <time>2018-04-22T09:36:50+02:00</time>
      </trkpt>
      <trkpt lat="47.25554" lon="-1.53965">
        <ele>-16</ele>
        <time>2018-04-22T09:37:11+02:00</time>
      </trkpt>
      <trkpt lat="47.25578" lon="-1.53956">
        <ele>-6</ele>
        <time>2018-04-22T09:37:24+02:00</time>
      </trkpt>
      <trkpt lat="47.25603" lon="-1.5394">
        <ele>6</ele>
        <time>2018-04-22T09:37:34+02:00</time>
      </trkpt>
      <trkpt lat="47.25627" lon="-1.53937">
        <ele>3</ele>
        <time>2018-04-22T09:37:47+02:00</time>
      </trkpt>
      <trkpt lat="47.25649" lon="-1.53934">
        <ele>-8</ele>
        <time>2018-04-22T09:38:13+02:00</time>
      </trkpt>
      <trkpt lat="47.2567" lon="-1.53922">
        <ele>-7</ele>
        <time>2018-04-22T09:38:29+02:00</time>
      </trkpt>
      <trkpt lat="47.25693" lon="-1.53914">
        <ele>-10</ele>
        <time>2018-04-22T09:38:44+02:00</time>
      </trkpt>
      <trkpt lat="47.25715" lon="-1.53926">
        <ele>-3</ele>
        <time>2018-04-22T09:38:58+02:00</time>
      </trkpt>
      <trkpt lat="47.25732" lon="-1.53948">
        <ele>4</ele>
        <time>2018-04-22T09:39:16+02:00</time>
      </trkpt>
      <trkpt lat="47.25754" lon="-1.53961">
        <ele>8.6</ele>
        <time>2018-04-22T09:39:39+02:00</time>
      </trkpt>
      <trkpt lat="47.25781" lon="-1.5395">
        <ele>1</ele>
        <time>2018-04-22T09:39:56+02:00</time>
      </trkpt>
      <trkpt lat="47.25804" lon="-1.53948">
        <ele>7</ele>
        <time>2018-04-22T09:40:07+02:00</time>
      </trkpt>
      <trkpt lat="47.25827" lon="-1.53945">
        <ele>8</ele>
        <time>2018-04-22T09:40:22+02:00</time>
      </trkpt>
      <trkpt lat="47.2585" lon="-1.53936">
        <ele>11</ele>
        <time>2018-04-22T09:40:38+02:00</time>
      </trkpt>
      <trkpt lat="47.2587" lon="-1.5392">
        <ele>11</ele>
        <time>2018-04-22T09:40:53+02:00</time>
      </trkpt>
      <trkpt lat="47.25889" lon="-1.53901">
        <ele>8</ele>
        <time>2018-04-22T09:41:10+02:00</time>
      </trkpt>
      <trkpt lat="47.25911" lon="-1.5389">
        <ele>7</ele>
        <time>2018-04-22T09:41:25+02:00</time>
      </trkpt>
      <trkpt lat="47.25933" lon="-1.53877">
        <ele>15</ele>
        <time>2018-04-22T09:41:42+02:00</time>
      </trkpt>
      <trkpt lat="47.25952" lon="-1.5386">
        <ele>12</ele>
        <time>2018-04-22T09:41:57+02:00</time>
      </trkpt>
      <trkpt lat="47.25972" lon="-1.53844">
        <ele>9</ele>
        <time>2018-04-22T09:42:14+02:00</time>
      </trkpt>
      <trkpt lat="47.25995" lon="-1.53837">
        <ele>3</ele>
        <time>2018-04-22T09:42:33+02:00</time>
      </trkpt>
      <trkpt lat="47.26017" lon="-1.53836">
        <ele>-1</ele>
        <time>2018-04-22T09:42:46+02:00</time>
      </trkpt>
      <trkpt lat="47.2604" lon="-1.53838">
        <ele>-3</ele>
        <time>2018-04-22T09:43:03+02:00</time>
      </trkpt>
      <trkpt lat="47.26063" lon="-1.5384">
        <ele>-6</ele>
        <time>2018-04-22T09:43:21+02:00</time>
      </trkpt>
      <trkpt lat="47.26086" lon="-1.53832">
        <ele>-4</ele>
        <time>2018-04-22T09:43:42+02:00</time>
      </trkpt>
      <trkpt lat="47.26111" lon="-1.53831">
        <ele>-1</ele>
        <time>2018-04-22T09:43:58+02:00</time>
      </trkpt>
      <trkpt lat="47.26136" lon="-1.53829">
        <ele>1</ele>
        <time>2018-04-22T09:44:11+02:00</time>
      </trkpt>
      <trkpt lat="47.26159" lon="-1.53833">
        <ele>7</ele>
        <time>2018-04-22T09:44:30+02:00</time>
      </trkpt>
      <trkpt lat="47.2618" lon="-1.53846">
        <ele>8</ele>
        <time>2018-04-22T09:44:45+02:00</time>
      </trkpt>
      <trkpt lat="47.262" lon="-1.53864">
        <ele>5</ele>
        <time>2018-04-22T09:45:00+02:00</time>
      </trkpt>
      <trkpt lat="47.26219" lon="-1.53885">
        <ele>3</ele>
        <time>2018-04-22T09:45:21+02:00</time>
      </trkpt>
      <trkpt lat="47.2624" lon="-1.53899">
        <ele>4</ele>
        <time>2018-04-22T09:45:37+02:00</time>
      </trkpt>
      <trkpt lat="47.26261" lon="-1.53914">
        <ele>7</ele>
        <time>2018-04-22T09:45:48+02:00</time>
      </trkpt>
      <trkpt lat="47.26279" lon="-1.53938">
        <ele>5</ele>
        <time>2018-04-22T09:46:07+02:00</time>
      </trkpt>
      <trkpt lat="47.26302" lon="-1.5395">
        <ele>12</ele>
        <time>2018-04-22T09:46:19+02:00</time>
      </trkpt>
      <trkpt lat="47.26323" lon="-1.53964">
        <ele>13</ele>
        <time>2018-04-22T09:46:36+02:00</time>
      </trkpt>
      <trkpt lat="47.26346" lon="-1.53976">
        <ele>13</ele>
        <time>2018-04-22T09:46:51+02:00</time>
      </trkpt>
      <trkpt lat="47.26369" lon="-1.53981">
        <ele>7</ele>
        <time>2018-04-22T09:47:08+02:00</time>
      </trkpt>
      <trkpt lat="47.26392" lon="-1.53987">
        <ele>6</ele>
        <time>2018-04-22T09:47:24+02:00</time>
      </trkpt>
      <trkpt lat="47.26414" lon="-1.5399">
        <ele>5</ele>
        <time>2018-04-22T09:47:42+02:00</time>
      </trkpt>
      <trkpt lat="47.26438" lon="-1.53994">
        <ele>4</ele>
        <time>2018-04-22T09:47:55+02:00</time>
      </trkpt>
      <trkpt lat="47.2646" lon="-1.53991">
        <ele>6</ele>
        <time>2018-04-22T09:48:08+02:00</time>
      </trkpt>
      <trkpt lat="47.26483" lon="-1.53982">
        <ele>8</ele>
        <time>2018-04-22T09:48:24+02:00</time>
      </trkpt>
      <trkpt lat="47.26507" lon="-1.53981">
        <ele>4</ele>
        <time>2018-04-22T09:48:46+02:00</time>
      </trkpt>
      <trkpt lat="47.2653" lon="-1.53988">
        <ele>12</ele>
        <time>2018-04-22T09:49:00+02:00</time>
      </trkpt>
      <trkpt lat="47.26552" lon="-1.53998">
        <ele>16</ele>
        <time>2018-04-22T09:49:16+02:00</time>
      </trkpt>
      <trkpt lat="47.26573" lon="-1.53981">
        <ele>15</ele>
        <time>2018-04-22T09:49:47+02:00</time>
      </trkpt>
      <trkpt lat="47.26587" lon="-1.53956">
        <ele>22</ele>
        <time>2018-04-22T09:50:11+02:00</time>
      </trkpt>
      <trkpt lat="47.26601" lon="-1.5393">
        <ele>30</ele>
        <time>2018-04-22T09:50:30+02:00</time>
      </trkpt>
      <trkpt lat="47.26622" lon="-1.53919">
        <ele>26</ele>
        <time>2018-04-22T09:50:51+02:00</time>
      </trkpt>
      <trkpt lat="47.26646" lon="-1.53917">
        <ele>19</ele>
        <time>2018-04-22T09:51:10+02:00</time>
      </trkpt>
      <trkpt lat="47.26668" lon="-1.53913">
        <ele>21</ele>
        <time>2018-04-22T09:51:23+02:00</time>
      </trkpt>
      <trkpt lat="47.26692" lon="-1.53913">
        <ele>16</ele>
        <time>2018-04-22T09:51:38+02:00</time>
      </trkpt>
      <trkpt lat="47.26715" lon="-1.53912">
        <ele>23</ele>
        <time>2018-04-22T09:51:54+02:00</time>
      </trkpt>
      <trkpt lat="47.26737" lon="-1.53906">
        <ele>21</ele>
        <time>2018-04-22T09:52:09+02:00</time>
      </trkpt>
      <trkpt lat="47.26753" lon="-1.53883">
        <ele>24</ele>
        <time>2018-04-22T09:52:27+02:00</time>
      </trkpt>
      <trkpt lat="47.26773" lon="-1.53864">
        <ele>16</ele>
        <time>2018-04-22T09:52:50+02:00</time>
      </trkpt>
      <trkpt lat="47.26797" lon="-1.53861">
        <ele>21</ele>
        <time>2018-04-22T09:53:08+02:00</time>
      </trkpt>
      <trkpt lat="47.26819" lon="-1.53863">
        <ele>24</ele>
        <time>2018-04-22T09:53:24+02:00</time>
      </trkpt>
      <trkpt lat="47.26843" lon="-1.53855">
        <ele>23</ele>
        <time>2018-04-22T09:53:47+02:00</time>
      </trkpt>
      <trkpt lat="47.26865" lon="-1.53845">
        <ele>15</ele>
        <time>2018-04-22T09:54:09+02:00</time>
      </trkpt>
      <trkpt lat="47.26887" lon="-1.53838">
        <ele>15</ele>
        <time>2018-04-22T09:54:27+02:00</time>
      </trkpt>
      <trkpt lat="47.26911" lon="-1.53835">
        <ele>11</ele>
        <time>2018-04-22T09:54:47+02:00</time>
      </trkpt>
      <trkpt lat="47.26934" lon="-1.53842">
        <ele>4</ele>
        <time>2018-04-22T09:55:06+02:00</time>
      </trkpt>
      <trkpt lat="47.26955" lon="-1.53858">
        <ele>1</ele>
        <time>2018-04-22T09:55:23+02:00</time>
      </trkpt>
      <trkpt lat="47.26979" lon="-1.53858">
        <ele>2</ele>
        <time>2018-04-22T09:55:40+02:00</time>
      </trkpt>
      <trkpt lat="47.27003" lon="-1.5385">
        <ele>18</ele>
        <time>2018-04-22T09:55:45+02:00</time>
      </trkpt>
      <trkpt lat="47.27005" lon="-1.53815">
        <ele>21</ele>
        <time>2018-04-22T09:56:05+02:00</time>
      </trkpt>
      <trkpt lat="47.27003" lon="-1.5378">
        <ele>20</ele>
        <time>2018-04-22T09:56:27+02:00</time>
      </trkpt>
      <trkpt lat="47.27004" lon="-1.53745">
        <ele>12</ele>
        <time>2018-04-22T09:56:41+02:00</time>
      </trkpt>
      <trkpt lat="47.27009" lon="-1.53712">
        <ele>7</ele>
        <time>2018-04-22T09:56:55+02:00</time>
      </trkpt>
      <trkpt lat="47.27018" lon="-1.53681">
        <ele>14</ele>
        <time>2018-04-22T09:57:11+02:00</time>
      </trkpt>
      <trkpt lat="47.27035" lon="-1.53657">
        <ele>17</ele>
        <time>2018-04-22T09:57:28+02:00</time>
      </trkpt>
      <trkpt lat="47.27057" lon="-1.53644">
        <ele>13</ele>
        <time>2018-04-22T09:57:45+02:00</time>
      </trkpt>
      <trkpt lat="47.27079" lon="-1.53638">
        <ele>14</ele>
        <time>2018-04-22T09:58:00+02:00</time>
      </trkpt>
      <trkpt lat="47.27101" lon="-1.53628">
        <ele>8</ele>
        <time>2018-04-22T09:58:15+02:00</time>
      </trkpt>
      <trkpt lat="47.27124" lon="-1.53633">
        <ele>5</ele>
        <time>2018-04-22T09:58:31+02:00</time>
      </trkpt>
      <trkpt lat="47.27145" lon="-1.53648">
        <ele>10</ele>
        <time>2018-04-22T09:58:51+02:00</time>
      </trkpt>
      <trkpt lat="47.27167" lon="-1.53659">
        <ele>13</ele>
        <time>2018-04-22T09:59:09+02:00</time>
      </trkpt>
      <trkpt lat="47.27189" lon="-1.53672">
        <ele>21</ele>
        <time>2018-04-22T09:59:27+02:00</time>
      </trkpt>
      <trkpt lat="47.27212" lon="-1.53677">
        <ele>16</ele>
        <time>2018-04-22T09:59:52+02:00</time>
      </trkpt>
      <trkpt lat="47.27234" lon="-1.53685">
        <ele>23</ele>
        <time>2018-04-22T10:04:39+02:00</time>
      </trkpt>
      <trkpt lat="47.27249" lon="-1.53712">
        <ele>29</ele>
        <time>2018-04-22T10:04:57+02:00</time>
      </trkpt>
      <trkpt lat="47.27261" lon="-1.53741">
        <ele>33</ele>
        <time>2018-04-22T10:05:14+02:00</time>
      </trkpt>
      <trkpt lat="47.27278" lon="-1.53763">
        <ele>33</ele>
        <time>2018-04-22T10:05:29+02:00</time>
      </trkpt>
      <trkpt lat="47.27299" lon="-1.53777">
        <ele>37</ele>
        <time>2018-04-22T10:05:45+02:00</time>
      </trkpt>
      <trkpt lat="47.27322" lon="-1.53772">
        <ele>36</ele>
        <time>2018-04-22T10:06:05+02:00</time>
      </trkpt>
      <trkpt lat="47.27341" lon="-1.53753">
        <ele>29</ele>
        <time>2018-04-22T10:06:25+02:00</time>
      </trkpt>
      <trkpt lat="47.27362" lon="-1.53737">
        <ele>25</ele>
        <time>2018-04-22T10:06:41+02:00</time>
      </trkpt>
      <trkpt lat="47.27382" lon="-1.53722">
        <ele>29</ele>
        <time>2018-04-22T10:06:57+02:00</time>
      </trkpt>
      <trkpt lat="47.27404" lon="-1.5371">
        <ele>35</ele>
        <time>2018-04-22T10:07:13+02:00</time>
      </trkpt>
      <trkpt lat="47.27426" lon="-1.53697">
        <ele>38</ele>
        <time>2018-04-22T10:07:30+02:00</time>
      </trkpt>
      <trkpt lat="47.27441" lon="-1.53672">
        <ele>44</ele>
        <time>2018-04-22T10:07:56+02:00</time>
      </trkpt>
      <trkpt lat="47.27431" lon="-1.53641">
        <ele>35</ele>
        <time>2018-04-22T10:08:20+02:00</time>
      </trkpt>
      <trkpt lat="47.27436" lon="-1.53608">
        <ele>32</ele>
        <time>2018-04-22T10:08:37+02:00</time>
      </trkpt>
      <trkpt lat="47.2744" lon="-1.53574">
        <ele>30</ele>
        <time>2018-04-22T10:08:56+02:00</time>
      </trkpt>
      <trkpt lat="47.27438" lon="-1.53539">
        <ele>29</ele>
        <time>2018-04-22T10:09:17+02:00</time>
      </trkpt>
      <trkpt lat="47.27419" lon="-1.53517">
        <ele>22</ele>
        <time>2018-04-22T10:09:32+02:00</time>
      </trkpt>
      <trkpt lat="47.27402" lon="-1.53494">
        <ele>20</ele>
        <time>2018-04-22T10:09:53+02:00</time>
      </trkpt>
      <trkpt lat="47.27387" lon="-1.53469">
        <ele>23</ele>
        <time>2018-04-22T10:10:05+02:00</time>
      </trkpt>
      <trkpt lat="47.27369" lon="-1.53446">
        <ele>14</ele>
        <time>2018-04-22T10:10:21+02:00</time>
      </trkpt>
      <trkpt lat="47.27353" lon="-1.53421">
        <ele>5</ele>
        <time>2018-04-22T10:10:39+02:00</time>
      </trkpt>
      <trkpt lat="47.27352" lon="-1.53387">
        <ele>6</ele>
        <time>2018-04-22T10:10:55+02:00</time>
      </trkpt>
      <trkpt lat="47.27357" lon="-1.53354">
        <ele>9</ele>
        <time>2018-04-22T10:11:12+02:00</time>
      </trkpt>
      <trkpt lat="47.27365" lon="-1.53323">
        <ele>11</ele>
        <time>2018-04-22T10:11:28+02:00</time>
      </trkpt>
      <trkpt lat="47.27366" lon="-1.53289">
        <ele>16</ele>
        <time>2018-04-22T10:11:50+02:00</time>
      </trkpt>
      <trkpt lat="47.27362" lon="-1.53256">
        <ele>19</ele>
        <time>2018-04-22T10:12:06+02:00</time>
      </trkpt>
      <trkpt lat="47.2737" lon="-1.53225">
        <ele>16</ele>
        <time>2018-04-22T10:12:19+02:00</time>
      </trkpt>
      <trkpt lat="47.2738" lon="-1.53195">
        <ele>19</ele>
        <time>2018-04-22T10:12:31+02:00</time>
      </trkpt>
      <trkpt lat="47.274" lon="-1.53176">
        <ele>14</ele>
        <time>2018-04-22T10:12:55+02:00</time>
      </trkpt>
      <trkpt lat="47.27421" lon="-1.53163">
        <ele>13</ele>
        <time>2018-04-22T10:13:12+02:00</time>
      </trkpt>
      <trkpt lat="47.27441" lon="-1.53146">
        <ele>17</ele>
        <time>2018-04-22T10:13:30+02:00</time>
      </trkpt>
      <trkpt lat="47.27457" lon="-1.53124">
        <ele>16</ele>
        <time>2018-04-22T10:13:46+02:00</time>
      </trkpt>
      <trkpt lat="47.27477" lon="-1.53106">
        <ele>17</ele>
        <time>2018-04-22T10:14:08+02:00</time>
      </trkpt>
      <trkpt lat="47.27493" lon="-1.53081">
        <ele>19</ele>
        <time>2018-04-22T10:14:22+02:00</time>
      </trkpt>
      <trkpt lat="47.27514" lon="-1.53068">
        <ele>13</ele>
        <time>2018-04-22T10:14:37+02:00</time>
      </trkpt>
      <trkpt lat="47.27534" lon="-1.53052">
        <ele>11</ele>
        <time>2018-04-22T10:14:55+02:00</time>
      </trkpt>
      <trkpt lat="47.27557" lon="-1.53045">
        <ele>13</ele>
        <time>2018-04-22T10:15:14+02:00</time>
      </trkpt>
      <trkpt lat="47.27575" lon="-1.53066">
        <ele>21</ele>
        <time>2018-04-22T10:15:29+02:00</time>
      </trkpt>
      <trkpt lat="47.27589" lon="-1.53095">
        <ele>27</ele>
        <time>2018-04-22T10:15:45+02:00</time>
      </trkpt>
      <trkpt lat="47.27599" lon="-1.53126">
        <ele>24</ele>
        <time>2018-04-22T10:16:00+02:00</time>
      </trkpt>
      <trkpt lat="47.27607" lon="-1.5316">
        <ele>22</ele>
        <time>2018-04-22T10:16:16+02:00</time>
      </trkpt>
      <trkpt lat="47.27618" lon="-1.53189">
        <ele>23</ele>
        <time>2018-04-22T10:16:31+02:00</time>
      </trkpt>
      <trkpt lat="47.27624" lon="-1.53222">
        <ele>24</ele>
        <time>2018-04-22T10:16:50+02:00</time>
      </trkpt>
      <trkpt lat="47.27636" lon="-1.53251">
        <ele>24</ele>
        <time>2018-04-22T10:17:02+02:00</time>
      </trkpt>
      <trkpt lat="47.2764" lon="-1.53285">
        <ele>30</ele>
        <time>2018-04-22T10:17:20+02:00</time>
      </trkpt>
      <trkpt lat="47.27642" lon="-1.5332">
        <ele>25</ele>
        <time>2018-04-22T10:17:37+02:00</time>
      </trkpt>
      <trkpt lat="47.27643" lon="-1.53354">
        <ele>25</ele>
        <time>2018-04-22T10:17:56+02:00</time>
      </trkpt>
      <trkpt lat="47.27644" lon="-1.53389">
        <ele>29</ele>
        <time>2018-04-22T10:18:13+02:00</time>
      </trkpt>
      <trkpt lat="47.27645" lon="-1.53422">
        <ele>27</ele>
        <time>2018-04-22T10:18:30+02:00</time>
      </trkpt>
      <trkpt lat="47.27647" lon="-1.53456">
        <ele>22</ele>
        <time>2018-04-22T10:18:45+02:00</time>
      </trkpt>
      <trkpt lat="47.2765" lon="-1.5349">
        <ele>15</ele>
        <time>2018-04-22T10:18:59+02:00</time>
      </trkpt>
      <trkpt lat="47.27652" lon="-1.53523">
        <ele>21</ele>
        <time>2018-04-22T10:19:17+02:00</time>
      </trkpt>
      <trkpt lat="47.2766" lon="-1.53555">
        <ele>25</ele>
        <time>2018-04-22T10:19:33+02:00</time>
      </trkpt>
      <trkpt lat="47.27683" lon="-1.53554">
        <ele>26</ele>
        <time>2018-04-22T10:20:09+02:00</time>
      </trkpt>
      <trkpt lat="47.27706" lon="-1.53551">
        <ele>27</ele>
        <time>2018-04-22T10:20:30+02:00</time>
      </trkpt>
      <trkpt lat="47.2772" lon="-1.53579">
        <ele>24</ele>
        <time>2018-04-22T10:20:45+02:00</time>
      </trkpt>
      <trkpt lat="47.27732" lon="-1.53609">
        <ele>24</ele>
        <time>2018-04-22T10:21:02+02:00</time>
      </trkpt>
      <trkpt lat="47.27745" lon="-1.53636">
        <ele>24</ele>
        <time>2018-04-22T10:21:17+02:00</time>
      </trkpt>
      <trkpt lat="47.27763" lon="-1.53658">
        <ele>23</ele>
        <time>2018-04-22T10:21:34+02:00</time>
      </trkpt>
      <trkpt lat="47.27783" lon="-1.53675">
        <ele>25</ele>
        <time>2018-04-22T10:21:50+02:00</time>
      </trkpt>
      <trkpt lat="47.27806" lon="-1.53681">
        <ele>28</ele>
        <time>2018-04-22T10:22:06+02:00</time>
      </trkpt>
      <trkpt lat="47.27829" lon="-1.5369">
        <ele>29</ele>
        <time>2018-04-22T10:22:20+02:00</time>
      </trkpt>
      <trkpt lat="47.27851" lon="-1.53699">
        <ele>25</ele>
        <time>2018-04-22T10:22:35+02:00</time>
      </trkpt>
      <trkpt lat="47.27875" lon="-1.53701">
        <ele>25</ele>
        <time>2018-04-22T10:22:51+02:00</time>
      </trkpt>
      <trkpt lat="47.27898" lon="-1.53698">
        <ele>23</ele>
        <time>2018-04-22T10:23:08+02:00</time>
      </trkpt>
      <trkpt lat="47.27921" lon="-1.53699">
        <ele>25</ele>
        <time>2018-04-22T10:23:25+02:00</time>
      </trkpt>
      <trkpt lat="47.27944" lon="-1.53699">
        <ele>33</ele>
        <time>2018-04-22T10:23:42+02:00</time>
      </trkpt>
      <trkpt lat="47.27968" lon="-1.53693">
        <ele>34</ele>
        <time>2018-04-22T10:23:58+02:00</time>
      </trkpt>
      <trkpt lat="47.27991" lon="-1.5369">
        <ele>37</ele>
        <time>2018-04-22T10:24:13+02:00</time>
      </trkpt>
      <trkpt lat="47.28014" lon="-1.53689">
        <ele>37</ele>
        <time>2018-04-22T10:24:29+02:00</time>
      </trkpt>
      <trkpt lat="47.28037" lon="-1.53689">
        <ele>39</ele>
        <time>2018-04-22T10:24:46+02:00</time>
      </trkpt>
      <trkpt lat="47.2806" lon="-1.53694">
        <ele>35</ele>
        <time>2018-04-22T10:25:01+02:00</time>
      </trkpt>
      <trkpt lat="47.28081" lon="-1.53704">
        <ele>30</ele>
        <time>2018-04-22T10:25:19+02:00</time>
      </trkpt>
      <trkpt lat="47.28102" lon="-1.53723">
        <ele>32</ele>
        <time>2018-04-22T10:25:36+02:00</time>
      </trkpt>
      <trkpt lat="47.2812" lon="-1.53744">
        <ele>31</ele>
        <time>2018-04-22T10:25:53+02:00</time>
      </trkpt>
      <trkpt lat="47.2814" lon="-1.53759">
        <ele>31</ele>
        <time>2018-04-22T10:26:09+02:00</time>
      </trkpt>
      <trkpt lat="47.28162" lon="-1.5375">
        <ele>28</ele>
        <time>2018-04-22T10:26:27+02:00</time>
      </trkpt>
      <trkpt lat="47.28182" lon="-1.53731">
        <ele>26</ele>
        <time>2018-04-22T10:26:45+02:00</time>
      </trkpt>
      <trkpt lat="47.28203" lon="-1.53712">
        <ele>22</ele>
        <time>2018-04-22T10:27:01+02:00</time>
      </trkpt>
      <trkpt lat="47.28223" lon="-1.53693">
        <ele>20</ele>
        <time>2018-04-22T10:27:19+02:00</time>
      </trkpt>
      <trkpt lat="47.28243" lon="-1.53675">
        <ele>21</ele>
        <time>2018-04-22T10:27:35+02:00</time>
      </trkpt>
      <trkpt lat="47.28263" lon="-1.5366">
        <ele>23</ele>
        <time>2018-04-22T10:27:53+02:00</time>
      </trkpt>
      <trkpt lat="47.28278" lon="-1.53634">
        <ele>25</ele>
        <time>2018-04-22T10:28:11+02:00</time>
      </trkpt>
      <trkpt lat="47.28298" lon="-1.53618">
        <ele>27</ele>
        <time>2018-04-22T10:28:25+02:00</time>
      </trkpt>
      <trkpt lat="47.28322" lon="-1.53609">
        <ele>27</ele>
        <time>2018-04-22T10:28:39+02:00</time>
      </trkpt>
      <trkpt lat="47.28344" lon="-1.536">
        <ele>26</ele>
        <time>2018-04-22T10:28:54+02:00</time>
      </trkpt>
      <trkpt lat="47.28365" lon="-1.53612">
        <ele>26</ele>
        <time>2018-04-22T10:29:11+02:00</time>
      </trkpt>
      <trkpt lat="47.28385" lon="-1.5363">
        <ele>28</ele>
        <time>2018-04-22T10:29:32+02:00</time>
      </trkpt>
      <trkpt lat="47.28407" lon="-1.53645">
        <ele>28</ele>
        <time>2018-04-22T10:29:46+02:00</time>
      </trkpt>
      <trkpt lat="47.28428" lon="-1.53659">
        <ele>27</ele>
        <time>2018-04-22T10:30:01+02:00</time>
      </trkpt>
      <trkpt lat="47.2845" lon="-1.53674">
        <ele>21</ele>
        <time>2018-04-22T10:30:19+02:00</time>
      </trkpt>
      <trkpt lat="47.28472" lon="-1.53681">
        <ele>13</ele>
        <time>2018-04-22T10:30:36+02:00</time>
      </trkpt>
      <trkpt lat="47.28487" lon="-1.53654">
        <ele>17</ele>
        <time>2018-04-22T10:30:53+02:00</time>
      </trkpt>
      <trkpt lat="47.28499" lon="-1.53624">
        <ele>22</ele>
        <time>2018-04-22T10:31:09+02:00</time>
      </trkpt>
      <trkpt lat="47.28504" lon="-1.5359">
        <ele>27</ele>
        <time>2018-04-22T10:31:26+02:00</time>
      </trkpt>
      <trkpt lat="47.2852" lon="-1.53566">
        <ele>21</ele>
        <time>2018-04-22T10:31:42+02:00</time>
      </trkpt>
      <trkpt lat="47.28536" lon="-1.53542">
        <ele>22</ele>
        <time>2018-04-22T10:31:56+02:00</time>
      </trkpt>
      <trkpt lat="47.28551" lon="-1.53514">
        <ele>23</ele>
        <time>2018-04-22T10:32:09+02:00</time>
      </trkpt>
      <trkpt lat="47.28565" lon="-1.53486">
        <ele>21</ele>
        <time>2018-04-22T10:32:25+02:00</time>
      </trkpt>
      <trkpt lat="47.28582" lon="-1.53465">
        <ele>14</ele>
        <time>2018-04-22T10:32:41+02:00</time>
      </trkpt>
      <trkpt lat="47.28603" lon="-1.53449">
        <ele>10</ele>
        <time>2018-04-22T10:33:03+02:00</time>
      </trkpt>
      <trkpt lat="47.28625" lon="-1.53452">
        <ele>13</ele>
        <time>2018-04-22T10:33:15+02:00</time>
      </trkpt>
      <trkpt lat="47.28647" lon="-1.53439">
        <ele>15</ele>
        <time>2018-04-22T10:33:37+02:00</time>
      </trkpt>
      <trkpt lat="47.28669" lon="-1.53427">
        <ele>8</ele>
        <time>2018-04-22T10:33:54+02:00</time>
      </trkpt>
      <trkpt lat="47.28692" lon="-1.5342">
        <ele>7</ele>
        <time>2018-04-22T10:34:08+02:00</time>
      </trkpt>
      <trkpt lat="47.28715" lon="-1.53416">
        <ele>15</ele>
        <time>2018-04-22T10:34:18+02:00</time>
      </trkpt>
      <trkpt lat="47.28736" lon="-1.53402">
        <ele>8</ele>
        <time>2018-04-22T10:34:33+02:00</time>
      </trkpt>
      <trkpt lat="47.28756" lon="-1.53385">
        <ele>8</ele>
        <time>2018-04-22T10:34:48+02:00</time>
      </trkpt>
      <trkpt lat="47.28776" lon="-1.53367">
        <ele>7</ele>
        <time>2018-04-22T10:35:06+02:00</time>
      </trkpt>
      <trkpt lat="47.28798" lon="-1.53355">
        <ele>13</ele>
        <time>2018-04-22T10:35:21+02:00</time>
      </trkpt>
      <trkpt lat="47.28818" lon="-1.53334">
        <ele>7</ele>
        <time>2018-04-22T10:35:36+02:00</time>
      </trkpt>
      <trkpt lat="47.2884" lon="-1.5333">
        <ele>2</ele>
        <time>2018-04-22T10:35:59+02:00</time>
      </trkpt>
      <trkpt lat="47.28855" lon="-1.53304">
        <ele>-2</ele>
        <time>2018-04-22T10:36:17+02:00</time>
      </trkpt>
      <trkpt lat="47.28878" lon="-1.53309">
        <ele>4</ele>
        <time>2018-04-22T10:36:30+02:00</time>
      </trkpt>
      <trkpt lat="47.28899" lon="-1.53324">
        <ele>6</ele>
        <time>2018-04-22T10:36:48+02:00</time>
      </trkpt>
      <trkpt lat="47.28919" lon="-1.53338">
        <ele>9</ele>
        <time>2018-04-22T10:37:05+02:00</time>
      </trkpt>
      <trkpt lat="47.28942" lon="-1.53349">
        <ele>15</ele>
        <time>2018-04-22T10:37:21+02:00</time>
      </trkpt>
      <trkpt lat="47.28964" lon="-1.53361">
        <ele>17</ele>
        <time>2018-04-22T10:37:36+02:00</time>
      </trkpt>
      <trkpt lat="47.28986" lon="-1.53374">
        <ele>17</ele>
        <time>2018-04-22T10:37:52+02:00</time>
      </trkpt>
      <trkpt lat="47.29003" lon="-1.53395">
        <ele>13</ele>
        <time>2018-04-22T10:38:08+02:00</time>
      </trkpt>
      <trkpt lat="47.29025" lon="-1.53408">
        <ele>13</ele>
        <time>2018-04-22T10:38:26+02:00</time>
      </trkpt>
      <trkpt lat="47.29046" lon="-1.53424">
        <ele>14</ele>
        <time>2018-04-22T10:38:41+02:00</time>
      </trkpt>
      <trkpt lat="47.29066" lon="-1.53439">
        <ele>18</ele>
        <time>2018-04-22T10:38:55+02:00</time>
      </trkpt>
      <trkpt lat="47.29087" lon="-1.53453">
        <ele>25</ele>
        <time>2018-04-22T10:39:12+02:00</time>
      </trkpt>
      <trkpt lat="47.29098" lon="-1.53484">
        <ele>19</ele>
        <time>2018-04-22T10:39:35+02:00</time>
      </trkpt>
      <trkpt lat="47.29117" lon="-1.53504">
        <ele>14</ele>
        <time>2018-04-22T10:39:49+02:00</time>
      </trkpt>
      <trkpt lat="47.29134" lon="-1.53526">
        <ele>14</ele>
        <time>2018-04-22T10:40:02+02:00</time>
      </trkpt>
      <trkpt lat="47.2915" lon="-1.53552">
        <ele>19</ele>
        <time>2018-04-22T10:40:18+02:00</time>
      </trkpt>
      <trkpt lat="47.29166" lon="-1.53575">
        <ele>21</ele>
        <time>2018-04-22T10:40:36+02:00</time>
      </trkpt>
      <trkpt lat="47.29186" lon="-1.53594">
        <ele>22</ele>
        <time>2018-04-22T10:40:51+02:00</time>
      </trkpt>
      <trkpt lat="47.29206" lon="-1.53609">
        <ele>23</ele>
        <time>2018-04-22T10:41:08+02:00</time>
      </trkpt>
      <trkpt lat="47.29226" lon="-1.53627">
        <ele>21</ele>
        <time>2018-04-22T10:41:22+02:00</time>
      </trkpt>
      <trkpt lat="47.2924" lon="-1.53653">
        <ele>16</ele>
        <time>2018-04-22T10:41:39+02:00</time>
      </trkpt>
      <trkpt lat="47.29249" lon="-1.53683">
        <ele>15</ele>
        <time>2018-04-22T10:41:59+02:00</time>
      </trkpt>
      <trkpt lat="47.29234" lon="-1.53707">
        <ele>26</ele>
        <time>2018-04-22T10:42:21+02:00</time>
      </trkpt>
      <trkpt lat="47.29212" lon="-1.53725">
        <ele>33</ele>
        <time>2018-04-22T10:42:40+02:00</time>
      </trkpt>
      <trkpt lat="47.29195" lon="-1.53749">
        <ele>27</ele>
        <time>2018-04-22T10:43:05+02:00</time>
      </trkpt>
      <trkpt lat="47.29173" lon="-1.53736">
        <ele>32</ele>
        <time>2018-04-22T10:43:24+02:00</time>
      </trkpt>
      <trkpt lat="47.2915" lon="-1.53744">
        <ele>31</ele>
        <time>2018-04-22T10:43:44+02:00</time>
      </trkpt>
      <trkpt lat="47.29131" lon="-1.53724">
        <ele>33</ele>
        <time>2018-04-22T10:44:03+02:00</time>
      </trkpt>
      <trkpt lat="47.29109" lon="-1.53712">
        <ele>35</ele>
        <time>2018-04-22T10:44:16+02:00</time>
      </trkpt>
      <trkpt lat="47.29086" lon="-1.53702">
        <ele>34</ele>
        <time>2018-04-22T10:44:33+02:00</time>
      </trkpt>
      <trkpt lat="47.29066" lon="-1.53687">
        <ele>31</ele>
        <time>2018-04-22T10:44:52+02:00</time>
      </trkpt>
      <trkpt lat="47.29047" lon="-1.53668">
        <ele>24</ele>
        <time>2018-04-22T10:45:12+02:00</time>
      </trkpt>
      <trkpt lat="47.29024" lon="-1.53662">
        <ele>19</ele>
        <time>2018-04-22T10:45:23+02:00</time>
      </trkpt>
      <trkpt lat="47.29001" lon="-1.53663">
        <ele>17</ele>
        <time>2018-04-22T10:45:47+02:00</time>
      </trkpt>
      <trkpt lat="47.28978" lon="-1.53668">
        <ele>33</ele>
        <time>2018-04-22T10:46:07+02:00</time>
      </trkpt>
      <trkpt lat="47.28953" lon="-1.53668">
        <ele>38</ele>
        <time>2018-04-22T10:46:20+02:00</time>
      </trkpt>
      <trkpt lat="47.28933" lon="-1.53683">
        <ele>25</ele>
        <time>2018-04-22T10:46:41+02:00</time>
      </trkpt>
      <trkpt lat="47.28921" lon="-1.53712">
        <ele>19</ele>
        <time>2018-04-22T10:46:59+02:00</time>
      </trkpt>
      <trkpt lat="47.28905" lon="-1.53737">
        <ele>19</ele>
        <time>2018-04-22T10:47:15+02:00</time>
      </trkpt>
      <trkpt lat="47.28891" lon="-1.53764">
        <ele>20</ele>
        <time>2018-04-22T10:47:31+02:00</time>
      </trkpt>
      <trkpt lat="47.28879" lon="-1.53794">
        <ele>15</ele>
        <time>2018-04-22T10:47:48+02:00</time>
      </trkpt>
      <trkpt lat="47.28868" lon="-1.53826">
        <ele>17</ele>
        <time>2018-04-22T10:48:06+02:00</time>
      </trkpt>
      <trkpt lat="47.28858" lon="-1.53858">
        <ele>21</ele>
        <time>2018-04-22T10:48:22+02:00</time>
      </trkpt>
      <trkpt lat="47.28848" lon="-1.5389">
        <ele>26</ele>
        <time>2018-04-22T10:48:38+02:00</time>
      </trkpt>
      <trkpt lat="47.28841" lon="-1.53922">
        <ele>28</ele>
        <time>2018-04-22T10:48:55+02:00</time>
      </trkpt>
      <trkpt lat="47.28833" lon="-1.53955">
        <ele>23</ele>
        <time>2018-04-22T10:49:10+02:00</time>
      </trkpt>
      <trkpt lat="47.28831" lon="-1.5399">
        <ele>31</ele>
        <time>2018-04-22T10:49:30+02:00</time>
      </trkpt>
      <trkpt lat="47.28826" lon="-1.54023">
        <ele>32</ele>
        <time>2018-04-22T10:49:47+02:00</time>
      </trkpt>
      <trkpt lat="47.28822" lon="-1.54056">
        <ele>30</ele>
        <time>2018-04-22T10:50:01+02:00</time>
      </trkpt>
      <trkpt lat="47.28805" lon="-1.54079">
        <ele>24</ele>
        <time>2018-04-22T10:50:18+02:00</time>
      </trkpt>
      <trkpt lat="47.28781" lon="-1.54075">
        <ele>27</ele>
        <time>2018-04-22T10:50:40+02:00</time>
      </trkpt>
      <trkpt lat="47.28758" lon="-1.54067">
        <ele>27</ele>
        <time>2018-04-22T10:50:54+02:00</time>
      </trkpt>
      <trkpt lat="47.28737" lon="-1.54053">
        <ele>36</ele>
        <time>2018-04-22T10:51:19+02:00</time>
      </trkpt>
      <trkpt lat="47.28714" lon="-1.54043">
        <ele>38</ele>
        <time>2018-04-22T10:51:36+02:00</time>
      </trkpt>
      <trkpt lat="47.28691" lon="-1.54032">
        <ele>34</ele>
        <time>2018-04-22T10:51:52+02:00</time>
      </trkpt>
      <trkpt lat="47.28669" lon="-1.54019">
        <ele>32</ele>
        <time>2018-04-22T10:52:08+02:00</time>
      </trkpt>
      <trkpt lat="47.28648" lon="-1.54007">
        <ele>35</ele>
        <time>2018-04-22T10:52:24+02:00</time>
      </trkpt>
      <trkpt lat="47.28626" lon="-1.53991">
        <ele>34</ele>
        <time>2018-04-22T10:52:41+02:00</time>
      </trkpt>
      <trkpt lat="47.28602" lon="-1.53986">
        <ele>34</ele>
        <time>2018-04-22T10:52:52+02:00</time>
      </trkpt>
      <trkpt lat="47.2858" lon="-1.53972">
        <ele>33</ele>
        <time>2018-04-22T10:53:06+02:00</time>
      </trkpt>
      <trkpt lat="47.28558" lon="-1.53961">
        <ele>23</ele>
        <time>2018-04-22T10:53:23+02:00</time>
      </trkpt>
      <trkpt lat="47.28534" lon="-1.53963">
        <ele>29</ele>
        <time>2018-04-22T10:53:43+02:00</time>
      </trkpt>
      <trkpt lat="47.2851" lon="-1.53965">
        <ele>31</ele>
        <time>2018-04-22T10:54:00+02:00</time>
      </trkpt>
      <trkpt lat="47.28487" lon="-1.53962">
        <ele>28</ele>
        <time>2018-04-22T10:54:13+02:00</time>
      </trkpt>
      <trkpt lat="47.28466" lon="-1.53975">
        <ele>30</ele>
        <time>2018-04-22T10:54:30+02:00</time>
      </trkpt>
      <trkpt lat="47.28445" lon="-1.53989">
        <ele>30</ele>
        <time>2018-04-22T10:54:47+02:00</time>
      </trkpt>
      <trkpt lat="47.28424" lon="-1.54">
        <ele>26</ele>
        <time>2018-04-22T10:55:02+02:00</time>
      </trkpt>
      <trkpt lat="47.28403" lon="-1.54013">
        <ele>27</ele>
        <time>2018-04-22T10:55:19+02:00</time>
      </trkpt>
      <trkpt lat="47.2838" lon="-1.54024">
        <ele>28</ele>
        <time>2018-04-22T10:55:35+02:00</time>
      </trkpt>
      <trkpt lat="47.28358" lon="-1.54038">
        <ele>26</ele>
        <time>2018-04-22T10:55:50+02:00</time>
      </trkpt>
      <trkpt lat="47.28337" lon="-1.5405">
        <ele>29</ele>
        <time>2018-04-22T10:56:10+02:00</time>
      </trkpt>
      <trkpt lat="47.28317" lon="-1.54068">
        <ele>30</ele>
        <time>2018-04-22T10:56:30+02:00</time>
      </trkpt>
      <trkpt lat="47.28295" lon="-1.54081">
        <ele>25</ele>
        <time>2018-04-22T10:56:44+02:00</time>
      </trkpt>
      <trkpt lat="47.28275" lon="-1.54098">
        <ele>21</ele>
        <time>2018-04-22T10:57:01+02:00</time>
      </trkpt>
      <trkpt lat="47.28256" lon="-1.54116">
        <ele>32</ele>
        <time>2018-04-22T10:57:19+02:00</time>
      </trkpt>
      <trkpt lat="47.28235" lon="-1.54135">
        <ele>28</ele>
        <time>2018-04-22T10:57:33+02:00</time>
      </trkpt>
      <trkpt lat="47.28235" lon="-1.5417">
        <ele>29</ele>
        <time>2018-04-22T10:57:54+02:00</time>
      </trkpt>
      <trkpt lat="47.28248" lon="-1.54199">
        <ele>28</ele>
        <time>2018-04-22T10:58:10+02:00</time>
      </trkpt>
      <trkpt lat="47.28257" lon="-1.5423">
        <ele>28</ele>
        <time>2018-04-22T10:58:29+02:00</time>
      </trkpt>
      <trkpt lat="47.28266" lon="-1.5426">
        <ele>25</ele>
        <time>2018-04-22T10:58:48+02:00</time>
      </trkpt>
      <trkpt lat="47.28278" lon="-1.54289">
        <ele>34</ele>
        <time>2018-04-22T10:59:03+02:00</time>
      </trkpt>
      <trkpt lat="47.28285" lon="-1.54323">
        <ele>33</ele>
        <time>2018-04-22T10:59:20+02:00</time>
      </trkpt>
      <trkpt lat="47.28291" lon="-1.54355">
        <ele>25</ele>
        <time>2018-04-22T10:59:35+02:00</time>
      </trkpt>
      <trkpt lat="47.28304" lon="-1.54381">
        <ele>30</ele>
        <time>2018-04-22T10:59:49+02:00</time>
      </trkpt>
      <trkpt lat="47.28319" lon="-1.5441">
        <ele>26</ele>
        <time>2018-04-22T11:00:04+02:00</time>
      </trkpt>
      <trkpt lat="47.28321" lon="-1.54444">
        <ele>30</ele>
        <time>2018-04-22T11:00:20+02:00</time>
      </trkpt>
      <trkpt lat="47.28332" lon="-1.54473">
        <ele>31</ele>
        <time>2018-04-22T11:00:42+02:00</time>
      </trkpt>
      <trkpt lat="47.2833" lon="-1.54507">
        <ele>45</ele>
        <time>2018-04-22T11:01:03+02:00</time>
      </trkpt>
      <trkpt lat="47.28327" lon="-1.5454">
        <ele>49</ele>
        <time>2018-04-22T11:01:18+02:00</time>
      </trkpt>
      <trkpt lat="47.28325" lon="-1.54575">
        <ele>51</ele>
        <time>2018-04-22T11:01:35+02:00</time>
      </trkpt>
      <trkpt lat="47.28322" lon="-1.54608">
        <ele>52</ele>
        <time>2018-04-22T11:01:51+02:00</time>
      </trkpt>
      <trkpt lat="47.28321" lon="-1.54643">
        <ele>52</ele>
        <time>2018-04-22T11:02:08+02:00</time>
      </trkpt>
      <trkpt lat="47.28322" lon="-1.54676">
        <ele>56</ele>
        <time>2018-04-22T11:02:24+02:00</time>
      </trkpt>
      <trkpt lat="47.2832" lon="-1.5471">
        <ele>56</ele>
        <time>2018-04-22T11:02:41+02:00</time>
      </trkpt>
      <trkpt lat="47.2831" lon="-1.5474">
        <ele>43</ele>
        <time>2018-04-22T11:02:56+02:00</time>
      </trkpt>
      <trkpt lat="47.2831" lon="-1.54774">
        <ele>38</ele>
        <time>2018-04-22T11:03:13+02:00</time>
      </trkpt>
      <trkpt lat="47.2831" lon="-1.54809">
        <ele>43</ele>
        <time>2018-04-22T11:03:30+02:00</time>
      </trkpt>
      <trkpt lat="47.28308" lon="-1.54842">
        <ele>41</ele>
        <time>2018-04-22T11:03:46+02:00</time>
      </trkpt>
      <trkpt lat="47.28307" lon="-1.54875">
        <ele>50</ele>
        <time>2018-04-22T11:04:02+02:00</time>
      </trkpt>
      <trkpt lat="47.28303" lon="-1.5491">
        <ele>53</ele>
        <time>2018-04-22T11:04:18+02:00</time>
      </trkpt>
      <trkpt lat="47.28285" lon="-1.5493">
        <ele>40</ele>
        <time>2018-04-22T11:04:31+02:00</time>
      </trkpt>
      <trkpt lat="47.28272" lon="-1.54957">
        <ele>34</ele>
        <time>2018-04-22T11:04:46+02:00</time>
      </trkpt>
      <trkpt lat="47.28253" lon="-1.54976">
        <ele>36</ele>
        <time>2018-04-22T11:05:23+02:00</time>
      </trkpt>
      <trkpt lat="47.28231" lon="-1.54973">
        <ele>36</ele>
        <time>2018-04-22T11:05:41+02:00</time>
      </trkpt>
      <trkpt lat="47.28208" lon="-1.54969">
        <ele>33</ele>
        <time>2018-04-22T11:05:57+02:00</time>
      </trkpt>
      <trkpt lat="47.28184" lon="-1.54968">
        <ele>30</ele>
        <time>2018-04-22T11:06:18+02:00</time>
      </trkpt>
      <trkpt lat="47.28162" lon="-1.54962">
        <ele>33</ele>
        <time>2018-04-22T11:06:33+02:00</time>
      </trkpt>
      <trkpt lat="47.28139" lon="-1.54957">
        <ele>31</ele>
        <time>2018-04-22T11:06:48+02:00</time>
      </trkpt>
      <trkpt lat="47.28117" lon="-1.54952">
        <ele>30</ele>
        <time>2018-04-22T11:07:04+02:00</time>
      </trkpt>
      <trkpt lat="47.28093" lon="-1.54947">
        <ele>33</ele>
        <time>2018-04-22T11:07:19+02:00</time>
      </trkpt>
      <trkpt lat="47.2807" lon="-1.5494">
        <ele>29</ele>
        <time>2018-04-22T11:07:34+02:00</time>
      </trkpt>
      <trkpt lat="47.28048" lon="-1.54932">
        <ele>27</ele>
        <time>2018-04-22T11:07:50+02:00</time>
      </trkpt>
      <trkpt lat="47.28024" lon="-1.54928">
        <ele>24</ele>
        <time>2018-04-22T11:08:06+02:00</time>
      </trkpt>
      <trkpt lat="47.28002" lon="-1.54917">
        <ele>21</ele>
        <time>2018-04-22T11:08:21+02:00</time>
      </trkpt>
      <trkpt lat="47.27979" lon="-1.5491">
        <ele>25</ele>
        <time>2018-04-22T11:08:38+02:00</time>
      </trkpt>
      <trkpt lat="47.27957" lon="-1.54905">
        <ele>28</ele>
        <time>2018-04-22T11:08:56+02:00</time>
      </trkpt>
      <trkpt lat="47.27934" lon="-1.54898">
        <ele>35</ele>
        <time>2018-04-22T11:09:14+02:00</time>
      </trkpt>
      <trkpt lat="47.2791" lon="-1.54894">
        <ele>37</ele>
        <time>2018-04-22T11:09:31+02:00</time>
      </trkpt>
      <trkpt lat="47.27887" lon="-1.54889">
        <ele>36</ele>
        <time>2018-04-22T11:09:45+02:00</time>
      </trkpt>
      <trkpt lat="47.27865" lon="-1.54882">
        <ele>34</ele>
        <time>2018-04-22T11:10:04+02:00</time>
      </trkpt>
      <trkpt lat="47.27842" lon="-1.54876">
        <ele>34</ele>
        <time>2018-04-22T11:10:22+02:00</time>
      </trkpt>
      <trkpt lat="47.2782" lon="-1.54871">
        <ele>44</ele>
        <time>2018-04-22T11:10:42+02:00</time>
      </trkpt>
      <trkpt lat="47.27797" lon="-1.54868">
        <ele>50</ele>
        <time>2018-04-22T11:11:00+02:00</time>
      </trkpt>
      <trkpt lat="47.27774" lon="-1.54859">
        <ele>57</ele>
        <time>2018-04-22T11:11:38+02:00</time>
      </trkpt>
      <trkpt lat="47.27752" lon="-1.54845">
        <ele>45</ele>
        <time>2018-04-22T11:12:03+02:00</time>
      </trkpt>
      <trkpt lat="47.27729" lon="-1.54843">
        <ele>40</ele>
        <time>2018-04-22T11:12:33+02:00</time>
      </trkpt>
      <trkpt lat="47.27707" lon="-1.54832">
        <ele>42</ele>
        <time>2018-04-22T11:13:03+02:00</time>
      </trkpt>
      <trkpt lat="47.27685" lon="-1.54824">
        <ele>43</ele>
        <time>2018-04-22T11:13:26+02:00</time>
      </trkpt>
      <trkpt lat="47.27662" lon="-1.54815">
        <ele>44</ele>
        <time>2018-04-22T11:13:54+02:00</time>
      </trkpt>
      <trkpt lat="47.27647" lon="-1.54839">
        <ele>42</ele>
        <time>2018-04-22T11:14:21+02:00</time>
      </trkpt>
      <trkpt lat="47.27655" lon="-1.54871">
        <ele>45</ele>
        <time>2018-04-22T11:14:39+02:00</time>
      </trkpt>
      <trkpt lat="47.27654" lon="-1.54906">
        <ele>41</ele>
        <time>2018-04-22T11:14:56+02:00</time>
      </trkpt>
      <trkpt lat="47.27653" lon="-1.5494">
        <ele>40</ele>
        <time>2018-04-22T11:15:15+02:00</time>
      </trkpt>
      <trkpt lat="47.27632" lon="-1.54957">
        <ele>33</ele>
        <time>2018-04-22T11:15:32+02:00</time>
      </trkpt>
      <trkpt lat="47.27612" lon="-1.54973">
        <ele>32</ele>
        <time>2018-04-22T11:15:47+02:00</time>
      </trkpt>
      <trkpt lat="47.27597" lon="-1.54999">
        <ele>35</ele>
        <time>2018-04-22T11:16:04+02:00</time>
      </trkpt>
      <trkpt lat="47.27579" lon="-1.5502">
        <ele>32</ele>
        <time>2018-04-22T11:16:18+02:00</time>
      </trkpt>
      <trkpt lat="47.27557" lon="-1.55034">
        <ele>32</ele>
        <time>2018-04-22T11:16:37+02:00</time>
      </trkpt>
      <trkpt lat="47.27536" lon="-1.55022">
        <ele>40</ele>
        <time>2018-04-22T11:16:56+02:00</time>
      </trkpt>
      <trkpt lat="47.27515" lon="-1.55007">
        <ele>42</ele>
        <time>2018-04-22T11:17:12+02:00</time>
      </trkpt>
      <trkpt lat="47.27498" lon="-1.55031">
        <ele>36</ele>
        <time>2018-04-22T11:17:38+02:00</time>
      </trkpt>
      <trkpt lat="47.27488" lon="-1.55062">
        <ele>32</ele>
        <time>2018-04-22T11:17:53+02:00</time>
      </trkpt>
      <trkpt lat="47.27476" lon="-1.5509">
        <ele>27</ele>
        <time>2018-04-22T11:18:09+02:00</time>
      </trkpt>
      <trkpt lat="47.27463" lon="-1.55118">
        <ele>28</ele>
        <time>2018-04-22T11:18:24+02:00</time>
      </trkpt>
      <trkpt lat="47.27448" lon="-1.55145">
        <ele>21</ele>
        <time>2018-04-22T11:18:43+02:00</time>
      </trkpt>
      <trkpt lat="47.2743" lon="-1.55164">
        <ele>20</ele>
        <time>2018-04-22T11:19:17+02:00</time>
      </trkpt>
      <trkpt lat="47.2741" lon="-1.55147">
        <ele>27</ele>
        <time>2018-04-22T11:19:35+02:00</time>
      </trkpt>
      <trkpt lat="47.2739" lon="-1.55129">
        <ele>32</ele>
        <time>2018-04-22T11:19:52+02:00</time>
      </trkpt>
      <trkpt lat="47.27369" lon="-1.55115">
        <ele>33</ele>
        <time>2018-04-22T11:20:08+02:00</time>
      </trkpt>
      <trkpt lat="47.2735" lon="-1.55135">
        <ele>36</ele>
        <time>2018-04-22T11:20:36+02:00</time>
      </trkpt>
      <trkpt lat="47.27343" lon="-1.55167">
        <ele>30</ele>
        <time>2018-04-22T11:20:55+02:00</time>
      </trkpt>
      <trkpt lat="47.27331" lon="-1.55197">
        <ele>29</ele>
        <time>2018-04-22T11:21:14+02:00</time>
      </trkpt>
      <trkpt lat="47.27315" lon="-1.55221">
        <ele>48</ele>
        <time>2018-04-22T11:21:35+02:00</time>
      </trkpt>
      <trkpt lat="47.27299" lon="-1.55247">
        <ele>53</ele>
        <time>2018-04-22T11:21:55+02:00</time>
      </trkpt>
      <trkpt lat="47.27282" lon="-1.5527">
        <ele>53</ele>
        <time>2018-04-22T11:22:10+02:00</time>
      </trkpt>
      <trkpt lat="47.27266" lon="-1.55295">
        <ele>50</ele>
        <time>2018-04-22T11:22:27+02:00</time>
      </trkpt>
      <trkpt lat="47.27249" lon="-1.55318">
        <ele>46</ele>
        <time>2018-04-22T11:22:42+02:00</time>
      </trkpt>
      <trkpt lat="47.27232" lon="-1.5534">
        <ele>37</ele>
        <time>2018-04-22T11:22:55+02:00</time>
      </trkpt>
      <trkpt lat="47.27215" lon="-1.55362">
        <ele>30</ele>
        <time>2018-04-22T11:23:12+02:00</time>
      </trkpt>
      <trkpt lat="47.27202" lon="-1.5539">
        <ele>28</ele>
        <time>2018-04-22T11:23:30+02:00</time>
      </trkpt>
      <trkpt lat="47.2719" lon="-1.55418">
        <ele>20</ele>
        <time>2018-04-22T11:23:47+02:00</time>
      </trkpt>
      <trkpt lat="47.27171" lon="-1.55438">
        <ele>19</ele>
        <time>2018-04-22T11:24:02+02:00</time>
      </trkpt>
      <trkpt lat="47.27151" lon="-1.55457">
        <ele>15</ele>
        <time>2018-04-22T11:24:16+02:00</time>
      </trkpt>
      <trkpt lat="47.27135" lon="-1.55481">
        <ele>14</ele>
        <time>2018-04-22T11:24:34+02:00</time>
      </trkpt>
      <trkpt lat="47.27115" lon="-1.55501">
        <ele>15</ele>
        <time>2018-04-22T11:24:57+02:00</time>
      </trkpt>
      <trkpt lat="47.27098" lon="-1.55523">
        <ele>18</ele>
        <time>2018-04-22T11:25:23+02:00</time>
      </trkpt>
      <trkpt lat="47.27076" lon="-1.55534">
        <ele>15</ele>
        <time>2018-04-22T11:25:40+02:00</time>
      </trkpt>
      <trkpt lat="47.27053" lon="-1.55527">
        <ele>19</ele>
        <time>2018-04-22T11:25:56+02:00</time>
      </trkpt>
      <trkpt lat="47.27036" lon="-1.55503">
        <ele>18</ele>
        <time>2018-04-22T11:26:10+02:00</time>
      </trkpt>
      <trkpt lat="47.27027" lon="-1.55472">
        <ele>22</ele>
        <time>2018-04-22T11:26:27+02:00</time>
      </trkpt>
      <trkpt lat="47.27024" lon="-1.55439">
        <ele>22</ele>
        <time>2018-04-22T11:26:45+02:00</time>
      </trkpt>
      <trkpt lat="47.27021" lon="-1.55404">
        <ele>21</ele>
        <time>2018-04-22T11:27:05+02:00</time>
      </trkpt>
      <trkpt lat="47.27017" lon="-1.5537">
        <ele>23</ele>
        <time>2018-04-22T11:27:23+02:00</time>
      </trkpt>
      <trkpt lat="47.27012" lon="-1.55337">
        <ele>26</ele>
        <time>2018-04-22T11:27:40+02:00</time>
      </trkpt>
      <trkpt lat="47.27009" lon="-1.55304">
        <ele>26</ele>
        <time>2018-04-22T11:27:59+02:00</time>
      </trkpt>
      <trkpt lat="47.26994" lon="-1.55279">
        <ele>25</ele>
        <time>2018-04-22T11:28:18+02:00</time>
      </trkpt>
      <trkpt lat="47.2698" lon="-1.55252">
        <ele>26</ele>
        <time>2018-04-22T11:28:34+02:00</time>
      </trkpt>
    </trkseg>
  </trk>
</gpx>